CheckWX is a tool to help pilots better visualize weather data.  It is not intended as a substitute for an official pre-flight weather briefing.

16:20:34 UTC

KSFF TAF
Felts Field Airport
Spokane, Washington, USA
KSFF 171505Z 1715/1812 22009KT P6SM BKN014 OVC050 FM171800 22012KT P6SM SCT015 OVC040 FM172100 23015G20KT P6SM VCSH BKN060 OVC080 FM180100 23014KT P6SM -RA BKN040 OVC060 FM180300 22012G18KT P6SM VCSH BKN050

Oct-17@
15:00 UTC

Oct-17 @ 15:00 UTC

Oct-17@
18:00 UTC

Oct-17 @ 18:00 UTC

KSFF 171505Z 1715/1812 22009KT P6SM BKN014 OVC050
Wind
  • 220° at 9 KTS
Cloud Levels
  • Broken at 1,400' AGL
  • Overcast at 5,000' AGL

Oct-17@
18:00 UTC

Oct-17 @ 18:00 UTC

Oct-17@
21:00 UTC

Oct-17 @ 21:00 UTC

FM171800 22012KT P6SM SCT015 OVC040

From

From Standard forecast or significant change

Wind
  • 220° at 12 KTS
Cloud Levels
  • Scattered at 1,500' AGL
  • Overcast at 4,000' AGL

Oct-17@
21:00 UTC

Oct-17 @ 21:00 UTC

Oct-18@
01:00 UTC

Oct-18 @ 01:00 UTC

FM172100 23015G20KT P6SM VCSH BKN060 OVC080

From

From Standard forecast or significant change

Wind
  • 230° at 15 KTS
  • {Gusting to 20 KTS
Cloud Levels
  • Broken at 6,000' AGL
  • Overcast at 8,000' AGL

Oct-18@
01:00 UTC

Oct-18 @ 01:00 UTC

Oct-18@
03:00 UTC

Oct-18 @ 03:00 UTC

FM180100 23014KT P6SM -RA BKN040 OVC060

From

From Standard forecast or significant change

Wind
  • 230° at 14 KTS
Conditions
Light Rain
Cloud Levels
  • Broken at 4,000' AGL
  • Overcast at 6,000' AGL

Oct-18@
03:00 UTC

Oct-18 @ 03:00 UTC

Oct-18@
12:00 UTC

Oct-18 @ 12:00 UTC

FM180300 22012G18KT P6SM VCSH BKN050

From

From Standard forecast or significant change

Wind
  • 220° at 12 KTS
  • {Gusting to 18 KTS
Cloud Levels
  • Broken at 5,000' AGL